Time;durP1;ratioP1;P1;durP2;ratioP2;P2;SDS_P1;SDS_P2;PMS_P1;PMS_P2;Temp;Humidity;BMP_temperature;BMP_pressure;BME280_temperature;BME280_humidity;BME280_pressure;Samples;Min_cycle;Max_cycle;Signal;HPM_P1;HPM_P2
2022/05/08 00:01:35;;;;;;;7.43;3.88;;;;;;;13.79;61.78;101567.09;5094534;28;20052;-57
2022/05/08 00:04:11;;;;;;;5.47;4.38;;;;;;;13.77;61.81;101571.47;5074240;28;20059;-57
2022/05/08 00:06:46;;;;;;;6.85;4.30;;;;;;;13.75;62.11;101570.59;5074125;28;20135;-56
2022/05/08 00:09:15;;;;;;;7.18;5.00;;;;;;;13.73;62.03;101567.16;5078543;28;20048;-57
2022/05/08 00:11:44;;;;;;;6.30;4.20;;;;;;;13.72;62.10;101567.16;5094127;28;20051;-55
2022/05/08 00:14:13;;;;;;;6.47;4.55;;;;;;;13.73;62.03;101564.53;5094028;28;20052;-57
2022/05/08 00:16:44;;;;;;;7.85;4.72;;;;;;;13.73;62.01;101577.56;5094068;28;20055;-57
2022/05/08 00:19:13;;;;;;;8.10;4.40;;;;;;;13.71;62.02;101568.91;5093831;28;20058;-57
2022/05/08 00:21:43;;;;;;;7.60;4.90;;;;;;;13.68;62.03;101571.53;5093546;28;20055;-55
2022/05/08 00:24:11;;;;;;;7.53;5.20;;;;;;;13.65;62.11;101571.56;5094009;28;20059;-53
2022/05/08 00:26:40;;;;;;;7.38;4.53;;;;;;;13.63;62.15;101573.31;5093802;28;20097;-56
2022/05/08 00:29:11;;;;;;;7.82;4.90;;;;;;;13.63;62.32;101568.09;5093479;28;20122;-57
2022/05/08 00:34:19;;;;;;;6.35;4.55;;;;;;;13.59;62.54;101563.78;5093065;28;20696;-54
2022/05/08 00:36:59;;;;;;;6.55;4.38;;;;;;;13.58;62.61;101564.66;5093243;28;20052;-57
2022/05/08 00:39:36;;;;;;;6.97;4.57;;;;;;;13.55;62.73;101556.88;5090736;28;20048;-56
2022/05/08 00:42:10;;;;;;;10.23;5.20;;;;;;;13.53;62.85;101558.63;5105224;28;20126;-57
2022/05/08 00:44:38;;;;;;;10.18;5.32;;;;;;;13.54;62.94;101562.97;5113146;28;20055;-56
2022/05/08 00:47:09;;;;;;;8.98;4.97;;;;;;;13.52;62.70;101560.34;5109402;28;20161;-55
2022/05/08 00:49:38;;;;;;;7.68;5.15;;;;;;;13.50;62.87;101562.09;5092880;28;20139;-56
2022/05/08 00:52:27;;;;;;;8.75;5.18;;;;;;;13.50;62.85;101550.81;5092828;28;20047;-56
2022/05/08 00:54:57;;;;;;;8.38;5.05;;;;;;;13.47;63.04;101561.25;5093156;28;20559;-57
2022/05/08 00:57:27;;;;;;;8.30;5.07;;;;;;;13.47;63.18;101563.84;5093333;28;20056;-56
2022/05/08 01:00:05;;;;;;;9.25;5.40;;;;;;;13.44;63.14;101567.34;5093048;28;20060;-55
2022/05/08 01:02:33;;;;;;;12.75;5.68;;;;;;;13.43;63.25;101564.75;5092860;28;20063;-56
2022/05/08 01:05:03;;;;;;;8.00;5.07;;;;;;;13.42;63.47;101573.44;5092833;28;20077;-56
2022/05/08 01:07:33;;;;;;;8.77;5.65;;;;;;;13.40;63.27;101572.59;5093366;28;20079;-56
2022/05/08 01:10:01;;;;;;;9.15;5.50;;;;;;;13.37;63.42;101573.47;5092929;28;20059;-57
2022/05/08 01:12:36;;;;;;;11.88;6.72;;;;;;;13.38;63.31;101571.72;5093118;28;20090;-57
2022/05/08 01:15:18;;;;;;;9.93;5.95;;;;;;;13.33;63.38;101573.50;5093368;28;20092;-57
2022/05/08 01:17:47;;;;;;;9.30;5.78;;;;;;;13.30;63.60;101571.78;5093058;28;20048;-56
2022/05/08 01:20:26;;;;;;;10.23;6.32;;;;;;;13.32;63.64;101575.25;5089913;28;20047;-55
2022/05/08 01:22:56;;;;;;;8.30;5.70;;;;;;;13.31;63.67;101575.25;5090675;28;20052;-56
2022/05/08 01:25:24;;;;;;;10.02;6.65;;;;;;;13.26;63.75;101573.56;5075491;28;20059;-57
2022/05/08 01:27:54;;;;;;;8.77;6.43;;;;;;;13.22;63.93;101582.25;5072458;28;20048;-57
2022/05/08 01:30:22;;;;;;;9.00;5.18;;;;;;;13.19;64.10;101587.47;5072542;28;20052;-57
2022/05/08 01:32:48;;;;;;;9.68;6.15;;;;;;;13.18;64.01;101579.69;5072653;28;20060;-56
2022/05/08 01:35:16;;;;;;;8.32;5.72;;;;;;;13.15;64.05;101580.53;5072677;28;20048;-57
2022/05/08 01:37:47;;;;;;;9.45;5.65;;;;;;;13.14;64.10;101584.00;5090715;28;20052;-57
2022/05/08 01:40:18;;;;;;;11.63;6.80;;;;;;;13.12;64.18;101590.97;5093660;28;20044;-57
2022/05/08 01:42:47;;;;;;;11.02;6.50;;;;;;;13.10;64.43;101587.50;5113049;28;20108;-56
2022/05/08 01:45:17;;;;;;;9.93;6.60;;;;;;;13.06;64.28;101585.78;5112160;28;20371;-56
2022/05/08 01:50:32;;;;;;;10.95;6.47;;;;;;;13.00;64.66;101584.91;5095245;28;20063;-54
2022/05/08 01:53:01;;;;;;;9.82;6.50;;;;;;;12.98;64.66;101586.66;5096994;28;20055;-57
2022/05/08 01:55:44;;;;;;;11.15;6.40;;;;;;;12.96;64.62;101584.94;5096796;28;20052;-57
2022/05/08 01:58:14;;;;;;;10.75;6.18;;;;;;;12.95;64.69;101587.53;5096600;28;20092;-57
2022/05/08 02:00:42;;;;;;;10.02;6.18;;;;;;;12.94;64.70;101591.03;5096722;28;20040;-57
2022/05/08 02:03:12;;;;;;;10.20;6.88;;;;;;;12.92;64.77;101588.44;5096168;28;20062;-57
2022/05/08 02:05:48;;;;;;;11.02;6.35;;;;;;;12.90;64.85;101591.91;5096365;28;20056;-57
2022/05/08 02:08:19;;;;;;;9.20;6.03;;;;;;;12.86;64.91;101598.00;5096356;28;20052;-56
2022/05/08 02:11:01;;;;;;;9.07;6.43;;;;;;;12.83;64.87;101595.41;5096244;28;20044;-57
2022/05/08 02:13:27;;;;;;;9.27;6.88;;;;;;;12.78;65.07;101597.16;5096267;28;20147;-57
2022/05/08 02:15:58;;;;;;;9.15;6.53;;;;;;;12.75;65.10;101594.56;5096146;28;20067;-57
2022/05/08 02:18:27;;;;;;;11.70;6.93;;;;;;;12.74;65.18;101592.84;5096191;28;20052;-56
2022/05/08 02:21:03;;;;;;;10.05;6.43;;;;;;;12.71;65.13;101590.25;5095679;28;20508;-56
2022/05/08 02:23:34;;;;;;;11.75;6.95;;;;;;;12.68;65.13;101592.88;5095615;28;20048;-56
2022/05/08 02:26:06;;;;;;;9.27;6.15;;;;;;;12.66;65.16;101590.28;5096157;28;20052;-56
2022/05/08 02:28:34;;;;;;;10.45;7.22;;;;;;;12.62;65.24;101585.94;5095644;28;20117;-56
2022/05/08 02:31:03;;;;;;;9.50;5.95;;;;;;;12.58;65.38;101582.50;5096034;28;20054;-56
2022/05/08 02:33:31;;;;;;;9.80;6.28;;;;;;;12.55;65.23;101592.91;5095788;28;20052;-53
2022/05/08 02:35:59;;;;;;;10.27;6.50;;;;;;;12.51;65.41;101580.78;5095857;28;20051;-56
2022/05/08 02:38:29;;;;;;;10.68;6.93;;;;;;;12.48;65.47;101579.91;5095555;28;20044;-57
2022/05/08 02:40:58;;;;;;;10.05;7.00;;;;;;;12.45;65.54;101575.56;5102278;28;20070;-57
2022/05/08 02:43:34;;;;;;;9.82;6.50;;;;;;;12.43;65.41;101577.31;5115974;28;20139;-55
2022/05/08 02:46:04;;;;;;;13.25;7.20;;;;;;;12.42;65.44;101586.00;5074972;28;20461;-57
2022/05/08 02:48:34;;;;;;;11.43;6.78;;;;;;;12.40;65.55;101582.53;5060795;28;20131;-57
2022/05/08 02:51:05;;;;;;;9.82;6.28;;;;;;;12.39;65.41;101580.78;5054148;28;20049;-56
2022/05/08 02:53:42;;;;;;;10.82;6.65;;;;;;;12.39;65.32;101579.94;5055755;28;20092;-56
2022/05/08 02:58:57;;;;;;;9.98;6.03;;;;;;;12.33;65.35;101586.88;5055347;28;20051;-55
2022/05/08 03:01:25;;;;;;;11.02;6.13;;;;;;;12.31;65.22;101587.75;5053496;28;20052;-57
2022/05/08 03:04:01;;;;;;;11.20;7.05;;;;;;;12.28;65.20;101579.97;5035547;28;20393;-56
2022/05/08 03:06:29;;;;;;;11.80;6.18;;;;;;;12.26;65.33;101579.97;5035754;28;20053;-57
2022/05/08 03:08:59;;;;;;;9.77;6.30;;;;;;;12.26;65.09;101579.09;5037150;28;20456;-56
2022/05/08 03:11:27;;;;;;;11.30;6.20;;;;;;;12.24;64.98;101581.69;5055138;28;20057;-56
2022/05/08 03:13:56;;;;;;;10.50;6.22;;;;;;;12.22;65.01;101580.84;5055098;28;20541;-57
2022/05/08 03:16:33;;;;;;;11.27;6.25;;;;;;;12.21;64.89;101580.84;5055255;28;20055;-56
2022/05/08 03:19:00;;;;;;;11.23;6.05;;;;;;;12.19;64.88;101579.97;5054814;28;20056;-57
2022/05/08 03:21:30;;;;;;;9.93;5.70;;;;;;;12.17;65.15;101579.97;5054708;28;20045;-54
2022/05/08 03:23:59;;;;;;;11.27;6.07;;;;;;;12.15;64.86;101575.66;5055014;28;20486;-56
2022/05/08 03:26:28;;;;;;;9.63;5.45;;;;;;;12.13;64.94;101578.25;5055212;28;20088;-56
2022/05/08 03:29:03;;;;;;;12.15;6.15;;;;;;;12.13;65.09;101578.25;5046551;28;20509;-57
2022/05/08 03:31:32;;;;;;;11.60;6.13;;;;;;;12.13;64.73;101577.38;5034756;28;20057;-56
2022/05/08 03:34:00;;;;;;;9.77;5.78;;;;;;;12.13;64.63;101587.78;5035646;28;20057;-56
2022/05/08 03:39:11;;;;;;;8.80;5.10;;;;;;;12.16;64.41;101582.59;5035222;28;20589;-57
2022/05/08 03:41:40;;;;;;;11.85;5.43;;;;;;;12.18;64.27;101588.66;5059445;28;20384;-57
2022/05/08 03:44:17;;;;;;;10.05;5.60;;;;;;;12.23;63.80;101584.31;5081986;28;20086;-54
2022/05/08 03:46:47;;;;;;;9.65;4.97;;;;;;;12.28;63.94;101587.75;5115341;28;20051;-56
2022/05/08 03:49:17;;;;;;;13.05;5.30;;;;;;;12.34;63.51;101592.94;5095346;28;20047;-56
2022/05/08 03:51:45;;;;;;;11.38;5.38;;;;;;;12.39;63.37;101593.78;5094858;28;20048;-55
2022/05/08 03:54:13;;;;;;;9.38;5.07;;;;;;;12.48;63.07;101600.72;5094315;28;20056;-57
2022/05/08 03:56:41;;;;;;;8.80;5.32;;;;;;;12.56;62.79;101602.44;5094973;28;20135;-57
2022/05/08 03:59:14;;;;;;;8.80;5.43;;;;;;;12.68;62.18;101605.88;5094808;28;20052;-57
2022/05/08 04:01:42;;;;;;;11.93;4.70;;;;;;;12.80;61.91;101605.81;5094411;28;20060;-57
2022/05/08 04:04:11;;;;;;;10.10;5.10;;;;;;;12.87;61.67;101611.00;5094705;28;20044;-57
2022/05/08 04:06:39;;;;;;;9.98;4.75;;;;;;;12.95;61.48;101609.22;5094633;28;20079;-57
2022/05/08 04:09:08;;;;;;;8.70;4.82;;;;;;;13.04;61.02;101613.56;5094767;28;20044;-57
2022/05/08 04:11:36;;;;;;;8.30;4.50;;;;;;;13.13;60.80;101615.25;5094383;28;20059;-57
2022/05/08 04:14:12;;;;;;;10.02;4.63;;;;;;;13.21;60.44;101616.97;5094351;28;20059;-57
2022/05/08 04:16:54;;;;;;;9.07;4.50;;;;;;;13.34;60.17;101611.69;5094678;28;20074;-57
2022/05/08 04:19:22;;;;;;;9.52;4.32;;;;;;;13.43;59.66;101611.63;5094038;28;20444;-54
2022/05/08 04:21:50;;;;;;;9.98;4.53;;;;;;;13.59;59.37;101613.28;5094378;28;20044;-56
2022/05/08 04:24:16;;;;;;;11.45;4.43;;;;;;;13.75;58.68;101609.69;5092466;28;20479;-56
2022/05/08 04:26:47;;;;;;;10.20;4.13;;;;;;;13.90;58.37;101614.78;5074076;28;20128;-54
2022/05/08 04:29:14;;;;;;;11.10;3.78;;;;;;;14.10;57.52;101618.97;5074223;28;20082;-56
2022/05/08 04:31:51;;;;;;;13.63;4.57;;;;;;;14.30;57.24;101618.78;5073737;28;20083;-58
2022/05/08 04:34:21;;;;;;;9.73;4.35;;;;;;;14.49;56.94;101615.13;5073833;28;20059;-55
2022/05/08 04:36:47;;;;;;;14.25;4.50;;;;;;;14.69;56.11;101612.34;5073843;28;20054;-56
2022/05/08 04:39:17;;;;;;;9.27;4.45;;;;;;;14.84;55.80;101622.59;5073208;28;20059;-57
2022/05/08 04:41:45;;;;;;;11.45;4.57;;;;;;;14.99;55.22;101617.19;5100463;28;20044;-54
2022/05/08 04:44:13;;;;;;;11.45;4.88;;;;;;;15.15;54.79;101623.97;5113685;28;20382;-56
2022/05/08 04:46:43;;;;;;;8.75;3.85;;;;;;;15.30;54.40;101619.41;5114349;28;20058;-57
2022/05/08 04:49:13;;;;;;;9.05;4.18;;;;;;;15.44;53.83;101622.69;5073350;28;20719;-57
2022/05/08 04:51:41;;;;;;;6.35;3.50;;;;;;;15.59;52.93;101630.31;5073563;28;20049;-56
2022/05/08 04:54:09;;;;;;;10.43;4.25;;;;;;;15.73;52.40;101628.41;5073675;28;20053;-57
2022/05/08 04:56:38;;;;;;;7.45;4.00;;;;;;;15.89;52.12;101630.75;5073176;28;20460;-56
2022/05/08 04:59:07;;;;;;;12.20;3.88;;;;;;;16.00;51.74;101634.94;5077913;28;20456;-57
2022/05/08 05:01:35;;;;;;;9.13;4.07;;;;;;;16.08;50.81;101632.19;5093089;28;20456;-57
2022/05/08 05:04:04;;;;;;;9.52;3.58;;;;;;;16.13;50.64;101632.09;5073503;28;20090;-57
2022/05/08 05:06:42;;;;;;;8.70;3.30;;;;;;;16.17;50.34;101634.66;5073195;28;20053;-57
2022/05/08 05:09:11;;;;;;;7.97;4.00;;;;;;;16.23;50.50;101645.03;5077059;28;20040;-57
2022/05/08 05:11:40;;;;;;;12.20;4.10;;;;;;;16.34;49.70;101643.06;5093411;28;20059;-58
2022/05/08 05:14:10;;;;;;;8.77;3.63;;;;;;;16.47;49.81;101629.78;5093365;28;20365;-57
2022/05/08 05:16:40;;;;;;;8.95;3.83;;;;;;;16.61;49.13;101635.59;5093540;28;20047;-57
2022/05/08 05:19:11;;;;;;;9.88;3.63;;;;;;;16.73;48.83;101640.66;5093199;28;20084;-57
2022/05/08 05:21:42;;;;;;;6.10;3.53;;;;;;;16.90;48.53;101640.31;5093191;28;20357;-57
2022/05/08 05:24:13;;;;;;;8.32;3.38;;;;;;;17.09;47.90;101638.19;5092866;28;20044;-57
2022/05/08 05:26:42;;;;;;;8.45;4.13;;;;;;;17.23;47.83;101641.41;5093040;28;20476;-57
2022/05/08 05:29:10;;;;;;;7.47;3.50;;;;;;;17.40;47.38;101643.63;5093320;28;20048;-57
2022/05/08 05:31:37;;;;;;;9.13;3.38;;;;;;;17.59;46.93;101651.06;5093054;28;20047;-57
2022/05/08 05:34:07;;;;;;;8.93;3.63;;;;;;;17.73;46.55;101648.16;5093130;28;20075;-54
2022/05/08 05:36:34;;;;;;;4.70;3.00;;;;;;;17.89;45.53;101646.03;5093171;28;20056;-56
2022/05/08 05:39:15;;;;;;;10.98;3.85;;;;;;;18.02;44.57;101649.22;5092296;28;20044;-57
2022/05/08 05:41:42;;;;;;;7.93;4.15;;;;;;;18.07;45.07;101645.56;5105879;28;20535;-55
2022/05/08 05:44:12;;;;;;;6.20;3.35;;;;;;;18.17;44.80;101648.81;5112856;28;20059;-57
2022/05/08 05:49:33;;;;;;;7.97;3.85;;;;;;;18.38;44.18;101663.19;5072543;28;20055;-56
2022/05/08 05:52:05;;;;;;;8.75;3.75;;;;;;;18.45;43.87;101655.09;5072652;28;20053;-56
2022/05/08 05:54:38;;;;;;;8.98;3.97;;;;;;;18.52;43.71;101655.81;5072817;28;20072;-57
2022/05/08 05:57:06;;;;;;;7.22;3.92;;;;;;;18.65;43.73;101656.38;5072951;28;20052;-57
2022/05/08 05:59:36;;;;;;;7.90;3.10;;;;;;;18.75;43.17;101653.47;5086700;28;20056;-57
2022/05/08 06:02:06;;;;;;;8.35;3.17;;;;;;;18.82;42.83;101662.03;5092487;28;20060;-57
2022/05/08 06:04:36;;;;;;;7.53;3.20;;;;;;;18.92;42.53;101664.38;5092858;28;20067;-55
2022/05/08 06:07:07;;;;;;;9.32;3.53;;;;;;;19.03;42.05;101665.81;5093043;28;20078;-55
2022/05/08 06:09:42;;;;;;;9.05;2.90;;;;;;;19.13;41.02;101664.66;5092672;28;20052;-55
2022/05/08 06:12:12;;;;;;;8.90;2.80;;;;;;;19.20;40.60;101664.41;5092765;28;20079;-56
2022/05/08 06:14:48;;;;;;;5.80;2.50;;;;;;;19.22;40.08;101659.13;5092363;28;20067;-56
2022/05/08 06:17:19;;;;;;;7.63;2.97;;;;;;;19.27;39.67;101665.13;5092721;28;20060;-56
2022/05/08 06:19:48;;;;;;;12.70;2.80;;;;;;;19.34;39.50;101663.16;5092249;28;20608;-56
2022/05/08 06:22:16;;;;;;;9.07;2.20;;;;;;;19.37;39.21;101658.69;5092022;28;20059;-56
2022/05/08 06:24:51;;;;;;;8.27;2.88;;;;;;;19.42;38.79;101661.16;5092484;28;20056;-57
2022/05/08 06:27:19;;;;;;;6.75;2.20;;;;;;;19.42;38.54;101667.28;5092442;28;20052;-56
2022/05/08 06:29:48;;;;;;;7.85;2.78;;;;;;;19.52;38.43;101655.63;5091552;28;20131;-57
2022/05/08 06:32:17;;;;;;;8.80;2.25;;;;;;;19.69;38.22;101664.75;5092323;28;20137;-57
2022/05/08 06:34:54;;;;;;;6.30;2.30;;;;;;;19.81;37.40;101672.28;5092617;28;20048;-57
2022/05/08 06:37:24;;;;;;;5.40;2.15;;;;;;;19.91;36.80;101673.69;5096128;28;20134;-57
2022/05/08 06:40:07;;;;;;;7.82;2.17;;;;;;;19.96;36.08;101661.25;5095993;28;20464;-57
2022/05/08 06:42:36;;;;;;;6.30;2.42;;;;;;;20.02;36.45;101671.56;5075927;28;20095;-57
2022/05/08 06:45:05;;;;;;;6.97;2.17;;;;;;;20.11;36.17;101676.53;5075052;28;20384;-57
2022/05/08 06:47:35;;;;;;;5.03;2.13;;;;;;;20.22;35.69;101676.16;5089420;28;20055;-56
2022/05/08 06:50:04;;;;;;;9.18;1.90;;;;;;;20.27;35.54;101676.00;5115963;28;20174;-57
2022/05/08 06:52:34;;;;;;;5.00;2.00;;;;;;;20.38;35.23;101671.28;5116385;28;20079;-57
2022/05/08 06:55:04;;;;;;;4.30;1.80;;;;;;;20.51;34.77;101677.84;5108335;28;20047;-57
2022/05/08 06:57:35;;;;;;;4.60;1.88;;;;;;;20.63;34.60;101677.44;5095827;28;20051;-56
2022/05/08 07:02:52;;;;;;;5.65;2.38;;;;;;;20.90;34.05;101674.75;5095458;28;20071;-57
2022/05/08 07:05:22;;;;;;;5.35;1.70;;;;;;;20.98;33.08;101675.31;5094756;28;20048;-55
2022/05/08 07:07:50;;;;;;;5.30;1.63;;;;;;;20.99;32.81;101677.03;5095390;28;20397;-57
2022/05/08 07:10:23;;;;;;;4.03;1.65;;;;;;;21.00;31.93;101676.13;5095308;28;20192;-55
2022/05/08 07:12:50;;;;;;;6.32;1.65;;;;;;;21.01;31.75;101685.75;5080981;28;20524;-57
2022/05/08 07:15:21;;;;;;;5.88;1.52;;;;;;;21.11;31.78;101684.50;5087242;28;20059;-56
2022/05/08 07:17:51;;;;;;;9.50;1.52;;;;;;;21.21;31.06;101692.91;5085481;28;20408;-57
2022/05/08 07:20:21;;;;;;;4.32;1.48;;;;;;;21.21;30.46;101691.13;5096464;28;20056;-55
2022/05/08 07:22:51;;;;;;;4.45;1.65;;;;;;;21.25;30.38;101690.13;5087335;28;20077;-56
2022/05/08 07:25:21;;;;;;;5.22;1.60;;;;;;;21.32;30.25;101699.53;5083455;28;20048;-56
2022/05/08 07:27:52;;;;;;;5.55;1.35;;;;;;;21.39;30.24;101695.78;5086019;28;20060;-56
2022/05/08 07:30:22;;;;;;;4.78;1.60;;;;;;;21.45;30.38;101696.44;5082256;28;20127;-56
2022/05/08 07:32:51;;;;;;;4.75;1.63;;;;;;;21.50;30.77;101702.41;5086425;28;20066;-56
2022/05/08 07:38:11;;;;;;;6.30;1.55;;;;;;;21.64;30.64;101710.66;5070252;28;20129;-54
2022/05/08 07:40:47;;;;;;;7.25;2.00;;;;;;;21.65;30.21;101717.63;5087797;28;20073;-56
2022/05/08 07:43:15;;;;;;;5.13;1.60;;;;;;;21.67;30.49;101715.81;5084991;28;20437;-55
2022/05/08 07:45:45;;;;;;;5.03;1.52;;;;;;;21.72;30.10;101719.13;5087904;28;20093;-57
2022/05/08 07:48:16;;;;;;;5.35;1.55;;;;;;;21.73;30.06;101715.56;5105676;28;20055;-56
2022/05/08 07:50:44;;;;;;;4.18;1.60;;;;;;;21.74;30.14;101714.63;5109313;28;20056;-56
2022/05/08 07:53:15;;;;;;;6.38;1.83;;;;;;;21.84;29.81;101710.72;5094531;28;20415;-54
2022/05/08 07:55:51;;;;;;;3.42;1.42;;;;;;;21.92;29.80;101713.94;5094738;28;20055;-56
2022/05/08 07:58:20;;;;;;;4.88;1.10;;;;;;;22.08;29.55;101727.41;5094410;28;20055;-53
2022/05/08 08:00:53;;;;;;;5.20;1.38;;;;;;;22.17;29.14;101729.66;5093858;28;20052;-57
2022/05/08 08:03:21;;;;;;;4.13;1.10;;;;;;;22.27;28.58;101732.78;5092325;28;20113;-56
2022/05/08 08:05:49;;;;;;;8.23;1.73;;;;;;;22.34;28.99;101736.88;5110231;28;20064;-57
2022/05/08 08:08:22;;;;;;;5.70;1.80;;;;;;;22.43;29.04;101728.59;5099233;28;20470;-56
2022/05/08 08:10:59;;;;;;;3.72;1.40;;;;;;;22.52;28.63;101737.91;5086160;28;20052;-56
2022/05/08 08:13:31;;;;;;;4.40;1.50;;;;;;;22.65;28.61;101739.09;5109458;28;20086;-56
2022/05/08 08:16:03;;;;;;;5.88;1.50;;;;;;;22.78;28.65;101737.66;5080506;28;20043;-55
2022/05/08 08:18:33;;;;;;;4.38;1.60;;;;;;;22.88;28.02;101731.06;5107626;28;20082;-57
2022/05/08 08:21:02;;;;;;;2.88;1.13;;;;;;;22.98;27.95;101737.69;5100274;28;20338;-55
2022/05/08 08:23:31;;;;;;;7.78;1.45;;;;;;;23.09;27.09;101734.56;5109018;28;20047;-57
2022/05/08 08:26:03;;;;;;;2.75;1.30;;;;;;;23.17;26.79;101748.31;5080242;28;20043;-56
2022/05/08 08:28:32;;;;;;;10.38;1.63;;;;;;;23.15;26.96;101744.88;5104128;28;20048;-56
2022/05/08 08:31:02;;;;;;;4.93;1.20;;;;;;;23.10;27.08;101746.88;5093315;28;20052;-56
2022/05/08 08:33:34;;;;;;;5.60;1.50;;;;;;;23.09;26.68;101744.28;5093696;28;20052;-57
2022/05/08 08:36:02;;;;;;;4.90;1.67;;;;;;;23.14;26.72;101748.44;5094167;28;20055;-57
2022/05/08 08:38:30;;;;;;;3.80;1.20;;;;;;;23.14;26.67;101745.81;5088774;28;20059;-57
2022/05/08 08:40:58;;;;;;;6.82;1.50;;;;;;;23.14;26.65;101743.16;5093782;28;20039;-57
2022/05/08 08:47:42;;;;;;;3.42;1.10;;;;;;;23.21;26.68;101749.88;5093582;28;20113;-57
2022/05/08 08:49:20;;;;;;;4.07;1.00;;;;;;;23.26;26.29;101758.47;5113775;28;20483;-56
2022/05/08 08:51:49;;;;;;;3.17;1.38;;;;;;;23.23;26.35;101771.84;5113926;28;20043;-56
2022/05/08 08:54:17;;;;;;;2.97;1.30;;;;;;;23.24;26.35;101762.97;5112993;28;20104;-57
2022/05/08 08:56:43;;;;;;;2.92;1.30;;;;;;;23.27;26.42;101770.75;5114007;28;20055;-57
2022/05/08 08:59:18;;;;;;;10.27;1.77;;;;;;;23.30;26.22;101765.34;5102961;28;20055;-57
2022/05/08 09:01:49;;;;;;;3.97;1.13;;;;;;;23.26;26.62;101766.41;5058191;28;20052;-57
2022/05/08 09:04:18;;;;;;;3.95;1.52;;;;;;;23.17;26.58;101764.19;5093908;28;20064;-56
2022/05/08 09:06:47;;;;;;;9.45;1.63;;;;;;;23.10;26.42;101768.03;5082439;28;20061;-57
2022/05/08 09:09:26;;;;;;;8.90;1.98;;;;;;;23.13;26.13;101767.88;5077236;28;20427;-54
2022/05/08 09:11:56;;;;;;;5.75;1.30;;;;;;;23.12;26.41;101778.53;5093524;28;20044;-56
2022/05/08 09:14:39;;;;;;;4.60;1.60;;;;;;;23.16;26.26;101778.31;5093370;28;20052;-56
2022/05/08 09:17:09;;;;;;;6.00;1.63;;;;;;;23.21;26.64;101775.47;5093185;28;20113;-57
2022/05/08 09:19:39;;;;;;;17.88;1.80;;;;;;;23.18;25.97;101781.75;5093281;28;20052;-56
2022/05/08 09:22:16;;;;;;;6.95;1.52;;;;;;;23.12;26.01;101770.59;5093292;28;20137;-56
2022/05/08 09:24:52;;;;;;;6.28;1.42;;;;;;;23.18;26.00;101791.47;5092804;28;20048;-56
2022/05/08 09:27:19;;;;;;;10.65;2.10;;;;;;;23.23;26.27;101782.41;5093003;28;20052;-54
2022/05/08 09:30:11;;;;;;;6.85;1.55;;;;;;;23.25;25.98;101791.13;5092834;28;20479;-56
2022/05/08 09:32:42;;;;;;;7.05;1.65;;;;;;;23.19;26.38;101794.06;5092475;28;20047;-55
2022/05/08 09:35:11;;;;;;;3.45;1.85;;;;;;;23.18;26.89;101794.97;5073006;28;20071;-55
2022/05/08 09:37:53;;;;;;;4.93;1.90;;;;;;;23.27;26.31;101791.94;5072848;28;20075;-55
2022/05/08 09:40:25;;;;;;;3.17;1.45;;;;;;;23.28;26.89;101788.34;5076037;28;20044;-56
2022/05/08 09:42:54;;;;;;;7.07;2.25;;;;;;;23.29;27.17;101779.50;5113126;28;20043;-55
2022/05/08 09:45:29;;;;;;;10.48;2.08;;;;;;;23.29;26.78;101792.72;5092515;28;20060;-54
2022/05/08 09:47:59;;;;;;;6.50;2.25;;;;;;;23.32;26.63;101782.94;5103140;28;20052;-55
2022/05/08 09:50:35;;;;;;;4.55;1.70;;;;;;;23.38;26.60;101782.66;5113391;28;20878;-54
2022/05/08 09:53:02;;;;;;;5.05;1.67;;;;;;;23.36;26.66;101782.72;5113443;28;20148;-55
2022/05/08 09:55:30;;;;;;;4.25;1.48;;;;;;;23.40;27.21;101788.72;5112949;28;20066;-54
2022/05/08 09:57:59;;;;;;;2.95;1.13;;;;;;;23.52;26.97;101785.56;5113384;28;20051;-55
2022/05/08 10:00:36;;;;;;;6.28;1.40;;;;;;;23.60;26.11;101788.72;5080979;28;20044;-55
2022/05/08 10:03:07;;;;;;;4.22;1.30;;;;;;;23.68;25.98;101786.59;5084954;28;20471;-54
2022/05/08 10:05:42;;;;;;;4.80;1.27;;;;;;;23.72;25.82;101788.16;5092746;28;20052;-56
2022/05/08 10:08:11;;;;;;;12.75;1.90;;;;;;;23.74;25.95;101796.88;5092860;28;20083;-55
2022/05/08 10:13:56;;;;;;;6.47;1.75;;;;;;;23.58;26.22;101795.88;5096568;28;20058;-55
2022/05/08 10:17:02;;;;;;;5.82;1.48;;;;;;;23.44;26.37;101808.84;5078101;28;20048;-55
2022/05/08 10:19:47;;;;;;;6.13;1.65;;;;;;;23.34;26.20;101802.22;5096470;28;20083;-55
2022/05/08 10:22:18;;;;;;;4.53;1.60;;;;;;;23.22;27.21;101798.34;5096829;28;20075;-55
2022/05/08 10:24:51;;;;;;;10.93;1.65;;;;;;;23.14;27.36;101806.63;5096428;28;20414;-56
2022/05/08 10:27:27;;;;;;;8.20;1.85;;;;;;;23.00;27.88;101798.44;5096306;28;20349;-58
2022/05/08 10:30:22;;;;;;;7.20;1.90;;;;;;;23.04;27.96;101788.59;5096747;28;20044;-56
2022/05/08 10:32:57;;;;;;;4.97;1.60;;;;;;;23.04;28.43;101805.31;5096507;28;20084;-56
2022/05/08 10:35:27;;;;;;;5.38;1.88;;;;;;;23.04;28.43;101789.44;5095792;28;20055;-56
2022/05/08 10:38:21;;;;;;;8.70;1.88;;;;;;;22.99;27.99;101802.00;5096548;28;20067;-56
2022/05/08 10:40:49;;;;;;;8.93;1.92;;;;;;;22.96;28.55;101802.16;5090585;28;20044;-56
2022/05/08 10:43:28;;;;;;;5.70;1.83;;;;;;;22.95;28.70;101801.28;5116621;28;20048;-56
2022/05/08 10:46:30;;;;;;;4.93;1.40;;;;;;;22.95;27.88;101809.22;5116166;28;20177;-55
2022/05/08 10:49:11;;;;;;;3.10;1.17;;;;;;;22.98;27.96;101810.88;5098034;28;20052;-55
2022/05/08 10:51:39;;;;;;;4.30;1.42;;;;;;;23.01;29.09;101818.66;5094261;28;20051;-56
2022/05/08 10:54:15;;;;;;;8.93;2.40;;;;;;;22.70;31.45;101832.28;5096022;28;20387;-56
2022/05/08 10:56:51;;;;;;;9.68;2.40;;;;;;;22.56;32.63;101835.50;5095900;28;20048;-56
2022/05/08 10:59:21;;;;;;;8.98;2.30;;;;;;;22.40;33.26;101828.25;5095745;28;20139;-56
2022/05/08 11:01:55;;;;;;;7.25;2.63;;;;;;;22.13;34.04;101836.34;5095790;28;20052;-55
2022/05/08 11:04:32;;;;;;;6.32;2.30;;;;;;;21.88;34.97;101841.66;5096126;28;20074;-55
2022/05/08 11:07:05;;;;;;;9.30;3.08;;;;;;;21.47;36.61;101837.06;5095911;28;20055;-55
2022/05/08 11:09:38;;;;;;;8.90;3.05;;;;;;;21.06;38.22;101839.31;5095726;28;20106;-55
2022/05/08 11:12:08;;;;;;;9.68;2.80;;;;;;;20.51;39.17;101841.16;5095528;28;20048;-55
2022/05/08 11:14:39;;;;;;;7.72;2.95;;;;;;;20.38;40.03;101847.69;5093528;28;20066;-55
2022/05/08 11:17:18;;;;;;;11.07;3.13;;;;;;;20.28;40.82;101843.59;5083322;28;20078;-54
2022/05/08 11:19:57;;;;;;;8.35;2.58;;;;;;;20.32;40.63;101842.63;5082119;28;20477;-55
2022/05/08 11:22:26;;;;;;;6.93;2.53;;;;;;;20.36;39.96;101844.25;5088068;28;20058;-56
2022/05/08 11:25:13;;;;;;;6.97;2.72;;;;;;;20.44;39.58;101840.50;5095309;28;20063;-55
2022/05/08 11:27:43;;;;;;;10.15;2.67;;;;;;;20.45;39.52;101842.22;5095298;28;20056;-56
2022/05/08 11:30:14;;;;;;;7.25;2.08;;;;;;;20.51;39.41;101833.25;5095174;28;20067;-55
2022/05/08 11:38:42;;;;;;;8.07;2.30;;;;;;;20.28;39.69;101827.81;5089078;28;20059;-54
2022/05/08 11:41:14;;;;;;;5.15;2.03;;;;;;;20.33;39.38;101831.19;5090544;28;20080;-57
2022/05/08 11:43:43;;;;;;;13.10;4.03;;;;;;;20.43;39.98;101840.53;5092914;28;20075;-56
2022/05/08 11:46:15;;;;;;;6.35;2.30;;;;;;;20.48;39.93;101841.25;5090931;28;20052;-54
2022/05/08 11:48:46;;;;;;;6.47;2.03;;;;;;;20.56;39.84;101841.88;5107224;28;20074;-57
2022/05/08 11:51:21;;;;;;;8.63;3.25;;;;;;;20.55;39.83;101855.94;5113684;28;20533;-56
2022/05/08 11:53:52;;;;;;;8.15;3.78;;;;;;;20.14;40.65;101850.16;5114427;28;20563;-56
2022/05/08 11:56:26;;;;;;;9.10;3.97;;;;;;;19.87;42.07;101853.63;5096345;28;20511;-54
2022/05/08 11:58:56;;;;;;;6.90;3.42;;;;;;;19.74;42.57;101857.50;5092221;28;20345;-56
2022/05/08 12:01:50;;;;;;;11.13;4.50;;;;;;;19.31;44.40;101863.06;5092676;28;20048;-56
2022/05/08 12:04:35;;;;;;;10.52;4.82;;;;;;;19.11;45.15;101866.19;5072622;28;20139;-57
2022/05/08 12:07:16;;;;;;;10.85;4.03;;;;;;;19.12;45.08;101862.66;5072758;28;20149;-53
2022/05/08 12:09:54;;;;;;;6.78;3.25;;;;;;;19.07;45.33;101864.53;5082014;28;20056;-54
2022/05/08 12:12:27;;;;;;;6.93;3.55;;;;;;;18.97;45.47;101869.16;5092780;28;20060;-53
2022/05/08 12:15:02;;;;;;;5.82;2.80;;;;;;;19.02;45.40;101876.94;5093882;28;20055;-53
2022/05/08 12:17:54;;;;;;;10.20;4.25;;;;;;;19.04;45.72;101875.13;5093604;28;20388;-53